Hlavní strana
METAR-TAF:

METAR-TAF

Letiště :

Bolton Field

Columbus, Ohio, Spojené státy americké

zeměpisná šířka: 39-54-03N, zeměpisná délka: 083-08-14W, výška: 276 m

Aktuální stav počasí

Zpráva byla vytvořena před 17 minutami, v 10:15 UTC
Východojihovýchodní vítr 9 kt
Teplota -12°C
Vlhkost vzduchu 66%
Tlak 1033 hPa
Viditelnost: 16.1 km
Polojasno ve výšce 10000 ft
Polojasno ve výšce 12000 ft

METAR: KTZR 221015Z AUTO 12009KT 10SM SCT100 SCT120 M12/M17 A3050 RMK AO2 T11231170

Čas: 05:32 (10:32 UTC)


TAF: chybějící

Stav a předpovědi počasí z více než 4 000 letišť (zprávy METAR a TAF).

Červené a žluté tečky na mapě představují dostupné meteorologické stanice.

Když kurzor umístíte na tečku, zobrazí se název stanice.

Pak kliknutím zobrazíte stav a předpověď počasí.

Chcete-li změnit mapu, kliknutím na zelené tlačítko se znaménkem +mapu přiblížíte, kliknutím na zelené tlačítko se znaménkem – mapu oddálíte a kliknutím na zelené šipky přejdete na sousední mapy.


METAR-TAF: